Time;durP1;ratioP1;P1;durP2;ratioP2;P2;SDS_P1;SDS_P2;PMS_P1;PMS_P2;Temp;Humidity;BMP_temperature;BMP_pressure;BME280_temperature;BME280_humidity;BME280_pressure;Samples;Min_cycle;Max_cycle;Signal;HPM_P1;HPM_P2
2021/08/01 00:02:12;;;;;;;10.68;3.10;;;17.60;80.10;;;;;;4993809;28;20474;-70
2021/08/01 00:04:38;;;;;;;13.95;3.97;;;17.50;80.20;;;;;;4989616;28;20022;-71
2021/08/01 00:07:04;;;;;;;5.80;3.13;;;17.50;80.40;;;;;;4997893;28;20160;-70
2021/08/01 00:09:30;;;;;;;5.47;3.08;;;17.40;80.50;;;;;;4996410;28;20105;-71
2021/08/01 00:11:56;;;;;;;7.88;3.55;;;17.40;80.80;;;;;;4999779;28;20104;-70
2021/08/01 00:14:22;;;;;;;8.77;3.30;;;17.30;80.80;;;;;;4997837;28;20026;-71
2021/08/01 00:16:47;;;;;;;4.85;2.88;;;17.30;80.90;;;;;;4984647;28;20113;-68
2021/08/01 00:19:13;;;;;;;9.57;3.63;;;17.30;81.40;;;;;;4993450;28;20038;-71
2021/08/01 00:21:38;;;;;;;5.78;3.25;;;17.20;81.60;;;;;;4982774;28;20037;-70
2021/08/01 00:24:04;;;;;;;5.07;3.05;;;17.30;82.30;;;;;;4988617;28;20029;-70
2021/08/01 00:26:30;;;;;;;7.10;3.10;;;17.30;81.90;;;;;;4999292;28;20019;-70
2021/08/01 00:28:55;;;;;;;5.90;3.08;;;17.20;81.70;;;;;;4992722;28;20050;-70
2021/08/01 00:31:21;;;;;;;5.57;2.90;;;17.20;81.40;;;;;;4991471;28;20403;-70
2021/08/01 00:33:47;;;;;;;3.38;2.90;;;17.10;81.30;;;;;;5005995;28;20030;-70
2021/08/01 00:36:13;;;;;;;5.20;3.08;;;17.00;81.60;;;;;;5003414;28;20041;-70
2021/08/01 00:38:38;;;;;;;7.95;3.00;;;16.90;82.20;;;;;;4992548;28;20039;-69
2021/08/01 00:41:04;;;;;;;5.50;3.30;;;16.90;82.30;;;;;;4980033;28;20097;-68
2021/08/01 00:43:31;;;;;;;4.07;2.97;;;16.80;82.40;;;;;;5007318;28;20454;-70
2021/08/01 00:45:57;;;;;;;5.07;3.00;;;16.80;82.70;;;;;;4976499;28;20113;-69
2021/08/01 00:48:24;;;;;;;5.15;2.75;;;16.70;82.70;;;;;;4993575;28;20041;-70
2021/08/01 00:50:50;;;;;;;4.93;3.25;;;16.60;83.10;;;;;;4973036;28;20019;-70
2021/08/01 00:53:16;;;;;;;7.53;3.25;;;16.60;83.80;;;;;;4996000;28;20491;-69
2021/08/01 00:55:41;;;;;;;4.47;3.15;;;16.70;84.10;;;;;;5003257;28;20206;-69
2021/08/01 00:58:08;;;;;;;6.00;3.58;;;16.70;84.10;;;;;;4987921;28;20023;-69
2021/08/01 01:03:25;;;;;;;8.70;3.78;;;16.60;84.00;;;;;;4991429;28;20064;-69
2021/08/01 01:06:01;;;;;;;7.20;4.22;;;16.50;84.30;;;;;;4991206;28;20546;-69
2021/08/01 01:08:48;;;;;;;7.07;4.07;;;16.50;84.90;;;;;;4992711;28;20039;-70
2021/08/01 01:11:15;;;;;;;4.90;3.60;;;16.50;85.10;;;;;;4957981;28;20031;-70
2021/08/01 01:13:46;;;;;;;5.70;3.95;;;16.40;85.00;;;;;;4980751;28;20447;-70
2021/08/01 01:16:12;;;;;;;5.13;3.70;;;16.40;85.40;;;;;;4991191;28;20061;-69
2021/08/01 01:18:46;;;;;;;7.07;3.35;;;16.40;85.20;;;;;;4991825;28;20072;-69
2021/08/01 01:21:43;;;;;;;6.72;4.00;;;16.30;85.60;;;;;;4991032;28;20034;-69
2021/08/01 01:24:18;;;;;;;7.35;3.90;;;16.20;85.90;;;;;;5003432;28;20470;-69
2021/08/01 01:26:54;;;;;;;6.25;3.40;;;16.20;86.00;;;;;;4988986;28;20022;-69
2021/08/01 01:29:33;;;;;;;7.90;3.40;;;16.20;85.90;;;;;;4973979;28;20039;-69
2021/08/01 01:32:09;;;;;;;6.43;3.63;;;16.10;86.10;;;;;;4990523;28;20114;-68
2021/08/01 01:34:38;;;;;;;5.35;3.42;;;16.10;86.50;;;;;;4993408;28;20026;-67
2021/08/01 01:37:06;;;;;;;6.53;3.28;;;16.00;86.30;;;;;;4983358;28;20094;-68
2021/08/01 01:39:35;;;;;;;5.40;3.65;;;16.00;86.70;;;;;;4993521;28;20045;-68
2021/08/01 01:42:02;;;;;;;4.15;3.35;;;16.00;87.10;;;;;;4995937;28;20029;-70
2021/08/01 01:44:29;;;;;;;7.57;3.25;;;16.10;87.20;;;;;;4990339;28;20038;-69
2021/08/01 01:46:56;;;;;;;4.60;3.38;;;16.10;87.50;;;;;;4972308;28;20378;-70
2021/08/01 01:49:22;;;;;;;6.30;3.17;;;16.10;87.70;;;;;;4990688;28;20061;-69
2021/08/01 01:51:48;;;;;;;9.38;3.65;;;16.10;87.90;;;;;;4990817;28;20034;-69
2021/08/01 01:54:14;;;;;;;5.50;3.13;;;16.10;88.10;;;;;;5005193;28;20516;-69
2021/08/01 01:56:42;;;;;;;6.95;3.30;;;16.20;88.30;;;;;;5009129;28;20117;-69
2021/08/01 01:59:08;;;;;;;4.80;3.03;;;16.20;88.30;;;;;;5000448;28;20019;-70
2021/08/01 02:01:35;;;;;;;5.30;3.05;;;16.20;88.10;;;;;;4972630;28;20387;-69
2021/08/01 02:04:01;;;;;;;6.07;3.15;;;16.10;88.00;;;;;;4984033;28;20438;-70
2021/08/01 02:06:27;;;;;;;6.30;3.22;;;16.10;88.10;;;;;;5006977;28;20030;-69
2021/08/01 02:09:01;;;;;;;5.82;3.85;;;16.00;88.10;;;;;;4987396;28;20077;-69
2021/08/01 02:12:13;;;;;;;7.03;3.53;;;16.00;88.80;;;;;;5002096;28;20034;-69
2021/08/01 02:15:03;;;;;;;6.57;3.85;;;15.90;88.90;;;;;;4964035;28;20403;-69
2021/08/01 02:17:56;;;;;;;5.80;3.65;;;15.80;89.00;;;;;;5005299;28;20033;-68
2021/08/01 02:20:34;;;;;;;6.70;4.22;;;15.80;89.20;;;;;;4998376;28;20044;-70
2021/08/01 02:23:01;;;;;;;5.90;4.00;;;15.70;89.10;;;;;;4995087;28;20483;-70
2021/08/01 02:25:28;;;;;;;6.47;4.00;;;15.70;89.10;;;;;;4996065;28;20023;-69
2021/08/01 02:27:56;;;;;;;7.72;4.50;;;15.70;89.60;;;;;;5054187;23;20132;-65
2021/08/01 02:30:24;;;;;;;8.07;4.65;;;15.70;89.70;;;;;;5007166;28;20029;-66
2021/08/01 02:32:50;;;;;;;6.63;4.32;;;15.70;89.90;;;;;;5009614;28;20049;-65
2021/08/01 02:35:17;;;;;;;8.60;4.50;;;15.70;90.00;;;;;;5009161;28;20049;-64
2021/08/01 02:37:44;;;;;;;7.47;5.00;;;15.80;90.10;;;;;;5009023;28;20394;-67
2021/08/01 02:40:12;;;;;;;8.95;5.00;;;15.70;90.10;;;;;;4981173;28;20112;-67
2021/08/01 02:42:41;;;;;;;9.20;5.28;;;15.70;90.20;;;;;;5009016;28;20034;-66
2021/08/01 02:45:07;;;;;;;8.07;5.07;;;15.70;90.30;;;;;;5006080;28;20018;-65
2021/08/01 02:47:35;;;;;;;6.63;5.03;;;15.70;90.30;;;;;;4999435;28;20690;-65
2021/08/01 02:50:02;;;;;;;7.05;4.78;;;15.70;90.30;;;;;;4992010;28;20183;-66
2021/08/01 02:52:39;;;;;;;10.43;5.63;;;15.60;90.40;;;;;;5009711;28;20026;-66
2021/08/01 02:55:07;;;;;;;9.48;5.10;;;15.60;90.50;;;;;;4997984;28;20034;-64
2021/08/01 02:57:35;;;;;;;10.15;5.30;;;15.50;90.50;;;;;;5009946;28;20549;-65
2021/08/01 03:00:03;;;;;;;7.20;5.25;;;15.50;90.50;;;;;;5005627;28;20387;-65
2021/08/01 03:02:29;;;;;;;6.90;5.28;;;15.40;90.60;;;;;;5008772;28;20022;-65
2021/08/01 03:04:57;;;;;;;8.82;5.57;;;15.40;90.60;;;;;;5008031;28;20026;-66
2021/08/01 03:07:23;;;;;;;7.82;5.68;;;15.30;91.00;;;;;;5010065;28;20121;-65
2021/08/01 03:09:53;;;;;;;8.68;5.25;;;15.30;90.80;;;;;;5009634;28;20034;-66
2021/08/01 03:12:18;;;;;;;10.90;5.50;;;15.30;91.00;;;;;;5008681;28;20560;-65
2021/08/01 03:14:44;;;;;;;7.20;5.40;;;15.30;90.90;;;;;;5010409;28;20046;-67
2021/08/01 03:17:10;;;;;;;9.77;5.18;;;15.20;91.00;;;;;;5013141;28;20030;-65
2021/08/01 03:19:39;;;;;;;7.93;5.60;;;15.30;91.10;;;;;;5013531;28;20125;-65
2021/08/01 03:22:05;;;;;;;10.13;5.88;;;15.20;91.10;;;;;;5013119;28;20052;-66
2021/08/01 03:24:31;;;;;;;10.00;6.07;;;15.20;91.20;;;;;;5011524;28;20018;-65
2021/08/01 03:26:57;;;;;;;10.32;6.75;;;15.20;91.30;;;;;;5013019;28;20049;-66
2021/08/01 03:29:23;;;;;;;10.85;6.53;;;15.20;91.40;;;;;;5012842;28;20065;-69
2021/08/01 03:31:48;;;;;;;7.47;6.10;;;15.30;91.40;;;;;;5012221;28;20030;-65
2021/08/01 03:34:14;;;;;;;10.07;7.30;;;15.20;91.40;;;;;;5012593;28;20038;-66
2021/08/01 03:36:40;;;;;;;15.18;6.82;;;15.30;91.50;;;;;;5011960;28;20474;-65
2021/08/01 03:39:06;;;;;;;11.30;7.50;;;15.20;91.60;;;;;;5012929;28;20033;-65
2021/08/01 03:41:32;;;;;;;10.52;6.88;;;15.20;91.70;;;;;;5012708;28;20026;-65
2021/08/01 03:43:57;;;;;;;11.82;6.88;;;15.30;91.90;;;;;;4993962;28;20030;-65
2021/08/01 03:46:23;;;;;;;9.75;6.28;;;15.30;91.90;;;;;;5011345;28;20414;-69
2021/08/01 03:48:48;;;;;;;12.80;6.57;;;15.30;91.80;;;;;;5012920;28;20100;-65
2021/08/01 03:51:14;;;;;;;9.00;7.18;;;15.30;91.90;;;;;;5008256;28;20034;-66
2021/08/01 03:53:40;;;;;;;9.15;6.82;;;15.30;92.00;;;;;;5012317;28;20076;-65
2021/08/01 03:56:06;;;;;;;13.00;7.30;;;15.40;92.00;;;;;;5011765;28;20038;-65
2021/08/01 03:58:31;;;;;;;13.10;7.30;;;15.30;92.00;;;;;;5009226;28;20111;-68
2021/08/01 04:00:57;;;;;;;8.82;6.53;;;15.30;92.00;;;;;;5009782;28;20399;-70
2021/08/01 04:03:23;;;;;;;9.48;6.18;;;15.30;92.20;;;;;;5007741;28;20110;-65
2021/08/01 04:05:49;;;;;;;8.70;5.97;;;15.30;92.10;;;;;;4991358;28;20470;-65
2021/08/01 04:08:14;;;;;;;9.23;6.40;;;15.30;92.10;;;;;;5011544;28;20083;-65
2021/08/01 04:10:40;;;;;;;10.68;6.63;;;15.30;92.10;;;;;;5012309;28;20108;-66
2021/08/01 04:13:06;;;;;;;10.20;6.28;;;15.30;92.20;;;;;;5011117;28;20022;-68
2021/08/01 04:15:32;;;;;;;8.18;6.22;;;15.30;92.20;;;;;;5011557;28;20400;-64
2021/08/01 04:17:57;;;;;;;8.85;6.05;;;15.30;92.20;;;;;;5012100;28;20072;-66
2021/08/01 04:20:23;;;;;;;10.75;6.60;;;15.30;92.20;;;;;;5012228;28;20033;-64
2021/08/01 04:22:52;;;;;;;12.57;6.38;;;15.20;92.20;;;;;;5003191;28;20037;-65
2021/08/01 04:25:18;;;;;;;11.05;6.85;;;15.30;92.40;;;;;;4992130;28;20065;-68
2021/08/01 04:27:44;;;;;;;11.90;6.53;;;15.30;92.40;;;;;;5011209;28;20053;-69
2021/08/01 04:30:10;;;;;;;10.60;6.82;;;15.30;92.30;;;;;;5009567;28;20534;-65
2021/08/01 04:32:36;;;;;;;12.00;7.00;;;15.30;92.30;;;;;;5003547;28;20358;-65
2021/08/01 04:35:02;;;;;;;12.38;7.45;;;15.30;92.30;;;;;;4992985;28;20054;-66
2021/08/01 04:37:29;;;;;;;9.23;6.60;;;15.20;92.30;;;;;;5012291;28;20029;-66
2021/08/01 04:39:54;;;;;;;11.38;7.63;;;15.20;92.40;;;;;;5009713;28;20339;-69
2021/08/01 04:42:20;;;;;;;11.82;7.63;;;15.20;92.40;;;;;;4994548;28;20022;-64
2021/08/01 04:44:45;;;;;;;8.82;6.75;;;15.10;92.50;;;;;;5010675;28;20540;-65
2021/08/01 04:47:13;;;;;;;10.00;7.22;;;15.20;92.50;;;;;;5011962;28;20053;-66
2021/08/01 04:49:39;;;;;;;11.95;7.50;;;15.20;92.60;;;;;;5005431;28;20101;-65
2021/08/01 04:52:05;;;;;;;12.35;7.28;;;15.20;92.70;;;;;;5012482;28;20029;-66
2021/08/01 04:54:30;;;;;;;10.05;7.55;;;15.20;92.60;;;;;;5010903;28;20051;-70
2021/08/01 04:56:56;;;;;;;9.93;7.20;;;15.10;92.60;;;;;;5010762;28;20104;-65
2021/08/01 04:59:21;;;;;;;12.55;7.68;;;15.20;92.70;;;;;;5011171;28;20033;-65
2021/08/01 05:01:47;;;;;;;10.68;7.85;;;15.10;92.70;;;;;;5010981;28;20034;-67
2021/08/01 05:04:13;;;;;;;13.15;7.70;;;15.10;92.70;;;;;;5006867;28;20029;-64
2021/08/01 05:06:39;;;;;;;10.68;7.53;;;15.10;92.80;;;;;;4993702;28;20026;-66
2021/08/01 05:09:04;;;;;;;11.60;7.82;;;15.10;92.80;;;;;;5011151;28;20101;-64
2021/08/01 05:11:30;;;;;;;13.30;7.65;;;15.10;93.00;;;;;;5011016;28;20037;-65
2021/08/01 05:13:56;;;;;;;10.93;7.93;;;15.20;93.00;;;;;;5011628;28;20077;-65
2021/08/01 05:16:21;;;;;;;12.68;7.50;;;15.20;93.10;;;;;;5004527;28;20030;-68
2021/08/01 05:18:47;;;;;;;13.02;8.52;;;15.20;93.10;;;;;;5011530;28;20069;-64
2021/08/01 05:21:18;;;;;;;16.25;8.15;;;15.30;93.20;;;;;;5005644;28;20475;-65
2021/08/01 05:23:44;;;;;;;12.07;9.27;;;15.30;93.10;;;;;;5011548;28;20442;-65
2021/08/01 05:26:10;;;;;;;10.70;8.63;;;15.30;93.10;;;;;;4991209;28;20104;-68
2021/08/01 05:28:35;;;;;;;10.27;8.30;;;15.30;93.10;;;;;;5010618;28;20038;-65
2021/08/01 05:31:01;;;;;;;13.10;7.80;;;15.30;93.10;;;;;;5011088;28;20026;-65
2021/08/01 05:33:26;;;;;;;18.05;10.63;;;15.30;93.10;;;;;;5009970;28;20546;-65
2021/08/01 05:35:52;;;;;;;17.45;11.32;;;15.30;93.20;;;;;;5007296;28;20526;-65
2021/08/01 05:38:18;;;;;;;14.65;10.55;;;15.30;93.20;;;;;;5002926;28;20042;-70
2021/08/01 05:40:46;;;;;;;12.60;8.70;;;15.30;93.30;;;;;;4985212;28;20084;-66
2021/08/01 05:43:12;;;;;;;12.60;8.48;;;15.40;93.30;;;;;;5007779;28;20045;-65
2021/08/01 05:45:37;;;;;;;12.20;8.18;;;15.30;93.20;;;;;;5007977;28;20386;-66
2021/08/01 05:48:03;;;;;;;14.00;8.68;;;15.40;93.40;;;;;;5003900;28;20030;-65
2021/08/01 05:50:29;;;;;;;12.68;8.55;;;15.40;93.30;;;;;;5001743;28;20070;-65
2021/08/01 05:52:54;;;;;;;14.38;10.20;;;15.40;93.30;;;;;;5007634;28;20050;-66
2021/08/01 05:55:20;;;;;;;12.90;8.85;;;15.40;93.40;;;;;;5005186;28;20037;-66
2021/08/01 05:57:45;;;;;;;10.85;8.20;;;15.40;93.40;;;;;;4985893;28;20371;-64
2021/08/01 06:00:12;;;;;;;12.88;8.73;;;15.50;93.40;;;;;;4998786;28;20037;-65
2021/08/01 06:02:37;;;;;;;11.45;8.63;;;15.50;93.50;;;;;;5000196;28;20394;-66
2021/08/01 06:05:03;;;;;;;13.30;9.15;;;15.50;93.50;;;;;;4991503;28;20030;-65
2021/08/01 06:07:29;;;;;;;11.32;8.27;;;15.50;93.50;;;;;;5008581;28;20033;-67
2021/08/01 06:09:54;;;;;;;13.18;7.90;;;15.50;93.50;;;;;;5008167;28;20026;-65
2021/08/01 06:12:20;;;;;;;12.48;9.27;;;15.60;93.60;;;;;;5008510;28;20116;-66
2021/08/01 06:14:49;;;;;;;12.38;8.15;;;15.60;93.60;;;;;;4999286;28;20045;-65
2021/08/01 06:17:15;;;;;;;12.98;8.25;;;15.60;93.60;;;;;;4978254;28;20033;-66
2021/08/01 06:19:41;;;;;;;14.27;8.40;;;15.60;93.40;;;;;;4994074;28;20044;-64
2021/08/01 06:22:06;;;;;;;11.55;8.68;;;15.60;93.40;;;;;;5008342;28;20676;-67
2021/08/01 06:24:32;;;;;;;13.10;8.45;;;15.60;93.60;;;;;;5009016;28;20441;-66
2021/08/01 06:26:58;;;;;;;15.18;7.95;;;15.60;93.60;;;;;;5003249;28;20030;-66
2021/08/01 06:29:23;;;;;;;11.05;7.88;;;15.70;93.70;;;;;;5000735;28;20398;-68
2021/08/01 06:31:49;;;;;;;12.85;8.15;;;15.70;93.70;;;;;;5006842;28;20511;-66
2021/08/01 06:34:15;;;;;;;10.65;7.90;;;15.70;93.60;;;;;;5007921;28;20034;-66
2021/08/01 06:36:40;;;;;;;20.02;12.32;;;15.70;93.70;;;;;;5008351;28;20026;-67
2021/08/01 06:39:08;;;;;;;10.73;7.95;;;15.80;93.70;;;;;;5006593;28;20032;-66
2021/08/01 06:41:34;;;;;;;9.18;7.13;;;15.70;93.60;;;;;;5006831;28;20448;-70
2021/08/01 06:44:00;;;;;;;8.85;7.28;;;15.70;93.60;;;;;;4987647;28;20057;-69
2021/08/01 06:46:26;;;;;;;11.05;7.57;;;15.70;93.60;;;;;;5001145;28;20062;-70
2021/08/01 06:48:51;;;;;;;9.35;6.93;;;15.70;93.60;;;;;;5007352;28;20385;-65
2021/08/01 06:51:17;;;;;;;8.18;7.05;;;15.70;93.70;;;;;;4982793;28;20080;-65
2021/08/01 06:53:42;;;;;;;10.07;7.30;;;15.70;93.70;;;;;;4996614;28;20026;-65
2021/08/01 06:56:08;;;;;;;8.30;7.28;;;15.80;93.80;;;;;;5013165;28;20033;-69
2021/08/01 06:58:34;;;;;;;8.15;6.63;;;15.80;93.80;;;;;;5010815;28;20033;-66
2021/08/01 07:00:59;;;;;;;12.63;7.07;;;15.90;93.80;;;;;;5010011;28;20014;-66
2021/08/01 07:03:26;;;;;;;9.10;6.55;;;15.90;93.80;;;;;;5014353;28;20077;-66
2021/08/01 07:05:52;;;;;;;6.90;6.18;;;15.90;93.70;;;;;;5012065;28;20025;-70
2021/08/01 07:08:18;;;;;;;9.02;6.60;;;16.00;93.90;;;;;;5007710;28;20034;-65
2021/08/01 07:10:43;;;;;;;8.90;6.28;;;16.00;93.80;;;;;;5008821;28;20470;-66
2021/08/01 07:13:19;;;;;;;8.40;5.95;;;16.10;93.80;;;;;;5014276;28;20030;-65
2021/08/01 07:15:45;;;;;;;9.05;5.57;;;16.10;93.90;;;;;;5002181;28;20022;-67
2021/08/01 07:18:10;;;;;;;6.18;5.57;;;16.10;93.70;;;;;;5008135;28;20548;-73
2021/08/01 07:20:36;;;;;;;7.88;5.53;;;16.10;93.70;;;;;;5005665;28;20029;-66
2021/08/01 07:23:05;;;;;;;7.47;5.35;;;16.00;93.70;;;;;;5013928;28;20022;-66
2021/08/01 07:25:31;;;;;;;6.05;5.35;;;16.00;93.70;;;;;;4995553;28;20076;-68
2021/08/01 07:27:56;;;;;;;9.15;5.95;;;16.00;93.70;;;;;;4992348;28;20070;-66
2021/08/01 07:30:22;;;;;;;8.30;6.07;;;16.00;93.60;;;;;;5005702;28;20038;-67
2021/08/01 07:32:48;;;;;;;9.45;5.63;;;16.00;93.70;;;;;;5009464;28;20109;-66
2021/08/01 07:35:13;;;;;;;7.05;6.13;;;16.00;93.80;;;;;;5013184;28;20538;-66
2021/08/01 07:37:40;;;;;;;7.55;5.68;;;16.00;93.80;;;;;;5013306;28;20026;-69
2021/08/01 07:40:06;;;;;;;7.90;5.95;;;16.00;93.70;;;;;;5013260;28;20033;-69
2021/08/01 07:42:32;;;;;;;9.35;6.15;;;16.00;93.70;;;;;;5012337;28;20457;-66
2021/08/01 07:45:05;;;;;;;7.85;6.43;;;16.00;93.80;;;;;;4999035;28;20101;-69
2021/08/01 07:47:33;;;;;;;7.07;6.32;;;16.00;93.80;;;;;;4994897;28;20041;-66
2021/08/01 07:50:00;;;;;;;8.80;5.93;;;16.00;93.70;;;;;;4994980;28;20030;-66
2021/08/01 07:52:25;;;;;;;9.55;6.55;;;16.00;93.70;;;;;;5007639;28;20514;-70
2021/08/01 07:54:51;;;;;;;8.35;6.78;;;16.00;93.70;;;;;;5012636;28;20113;-66
2021/08/01 07:57:30;;;;;;;7.65;6.55;;;16.00;93.70;;;;;;5012879;28;20033;-65
2021/08/01 07:59:57;;;;;;;7.82;6.18;;;16.00;93.90;;;;;;5008482;28;20109;-70
2021/08/01 08:02:23;;;;;;;13.50;9.45;;;16.00;93.90;;;;;;5011333;28;20026;-67
2021/08/01 08:04:50;;;;;;;10.35;6.63;;;16.00;93.90;;;;;;4995067;28;20022;-69
2021/08/01 08:07:15;;;;;;;6.97;6.10;;;16.10;93.90;;;;;;5012173;28;20022;-65
2021/08/01 08:09:41;;;;;;;12.93;6.47;;;16.10;93.90;;;;;;5013125;28;20108;-65
2021/08/01 08:12:07;;;;;;;8.93;5.90;;;16.20;93.80;;;;;;4994738;28;20486;-66
2021/08/01 08:14:33;;;;;;;8.80;5.68;;;16.10;93.80;;;;;;5010490;28;20065;-66
2021/08/01 08:16:59;;;;;;;9.57;6.45;;;16.20;93.90;;;;;;5000414;28;20073;-68
2021/08/01 08:19:24;;;;;;;10.60;7.03;;;16.20;93.90;;;;;;5009231;28;20084;-67
2021/08/01 08:21:50;;;;;;;8.65;5.93;;;16.30;93.80;;;;;;5009934;28;20030;-70
2021/08/01 08:24:16;;;;;;;8.65;6.32;;;16.30;93.80;;;;;;4994268;28;20022;-67
2021/08/01 08:26:42;;;;;;;7.65;6.00;;;16.30;93.80;;;;;;5011258;28;20040;-66
2021/08/01 08:29:07;;;;;;;8.27;6.13;;;16.30;93.80;;;;;;5072047;23;20046;-69
2021/08/01 08:31:33;;;;;;;7.47;5.88;;;16.40;93.80;;;;;;5002306;28;20048;-68
2021/08/01 08:33:59;;;;;;;7.30;5.90;;;16.40;93.80;;;;;;5001769;28;20025;-68
2021/08/01 08:36:25;;;;;;;8.82;5.75;;;16.50;93.70;;;;;;4994693;28;20543;-68
2021/08/01 08:38:51;;;;;;;6.53;5.28;;;16.50;93.60;;;;;;5007772;28;20087;-67
2021/08/01 08:41:16;;;;;;;7.03;5.38;;;16.50;93.60;;;;;;5012772;28;20097;-69
2021/08/01 08:43:46;;;;;;;9.48;5.30;;;16.60;93.60;;;;;;5010359;28;20029;-69
2021/08/01 08:46:12;;;;;;;9.40;5.53;;;16.60;93.60;;;;;;5005952;28;20068;-68
2021/08/01 08:48:39;;;;;;;6.28;5.40;;;16.70;93.60;;;;;;5010808;28;20037;-68
2021/08/01 08:51:09;;;;;;;5.50;4.82;;;16.70;93.50;;;;;;5000812;28;20525;-66
2021/08/01 08:53:50;;;;;;;8.82;5.35;;;16.70;93.30;;;;;;5012016;28;20021;-71
2021/08/01 08:56:16;;;;;;;7.47;4.50;;;16.70;93.20;;;;;;5011204;28;20036;-70
2021/08/01 08:58:45;;;;;;;4.90;4.07;;;16.60;93.20;;;;;;5007418;28;20034;-68
2021/08/01 09:01:10;;;;;;;5.43;3.97;;;16.60;93.10;;;;;;5008025;28;20076;-74
2021/08/01 09:03:36;;;;;;;4.65;4.20;;;16.60;93.10;;;;;;4994229;28;20026;-74
2021/08/01 09:06:02;;;;;;;6.43;4.30;;;16.60;93.20;;;;;;4995929;28;20030;-74
2021/08/01 09:08:27;;;;;;;5.65;3.92;;;16.60;93.10;;;;;;4999322;28;20022;-73
2021/08/01 09:10:57;;;;;;;5.50;3.55;;;16.60;93.20;;;;;;4983840;28;20109;-73
2021/08/01 09:14:02;;;;;;;7.18;4.28;;;16.70;93.30;;;;;;4994348;28;20182;-73
2021/08/01 09:16:42;;;;;;;6.30;3.85;;;16.80;93.20;;;;;;4948771;29;20063;-72
2021/08/01 09:19:34;;;;;;;4.57;3.63;;;16.90;93.10;;;;;;4948276;29;20031;-71
2021/08/01 09:22:24;;;;;;;7.53;4.20;;;16.90;93.10;;;;;;4990337;28;20576;-71
2021/08/01 09:24:52;;;;;;;4.55;4.00;;;17.10;93.10;;;;;;5001255;28;20030;-76
2021/08/01 09:27:32;;;;;;;5.60;3.95;;;17.10;92.80;;;;;;4993413;28;20033;-74
2021/08/01 09:29:58;;;;;;;4.07;3.70;;;17.30;92.80;;;;;;5009067;28;20036;-75
2021/08/01 09:32:25;;;;;;;6.32;3.90;;;17.40;92.70;;;;;;5003676;28;20030;-73
2021/08/01 09:34:52;;;;;;;7.90;4.65;;;17.50;92.60;;;;;;4997295;28;20366;-74
2021/08/01 09:37:32;;;;;;;7.57;4.38;;;17.50;92.50;;;;;;5008514;28;20095;-76
2021/08/01 09:40:10;;;;;;;6.57;5.03;;;17.40;92.50;;;;;;5009492;28;20034;-75
2021/08/01 09:42:43;;;;;;;6.60;5.10;;;17.40;92.50;;;;;;5002235;28;20037;-73
2021/08/01 09:45:21;;;;;;;7.15;4.75;;;17.40;92.50;;;;;;5010197;28;20018;-74
2021/08/01 09:47:48;;;;;;;7.07;4.57;;;17.30;92.40;;;;;;4984860;28;20041;-73
2021/08/01 09:50:16;;;;;;;6.38;4.90;;;17.30;92.40;;;;;;5010578;28;20025;-74
2021/08/01 09:52:43;;;;;;;6.10;4.53;;;17.30;92.50;;;;;;5010944;28;20117;-73
2021/08/01 09:55:19;;;;;;;5.03;4.30;;;17.30;92.50;;;;;;5010742;28;20041;-73
2021/08/01 09:57:53;;;;;;;6.95;5.63;;;17.30;92.50;;;;;;5010161;28;20470;-72
2021/08/01 10:00:19;;;;;;;5.95;5.35;;;17.30;92.50;;;;;;4992890;28;20042;-73
2021/08/01 10:02:45;;;;;;;7.18;4.70;;;17.20;92.40;;;;;;5002370;28;20612;-73
2021/08/01 10:05:21;;;;;;;8.98;4.80;;;17.20;92.40;;;;;;4990502;28;20103;-74
2021/08/01 10:07:50;;;;;;;9.10;5.28;;;17.20;92.60;;;;;;5004072;28;20018;-73
2021/08/01 10:10:23;;;;;;;5.93;4.72;;;17.30;92.40;;;;;;4990606;28;20040;-73
2021/08/01 10:12:57;;;;;;;10.68;5.18;;;17.30;92.40;;;;;;5009368;28;20018;-73
2021/08/01 10:15:24;;;;;;;7.28;5.03;;;17.40;92.40;;;;;;5008514;28;20116;-72
2021/08/01 10:17:50;;;;;;;6.28;4.75;;;17.40;92.20;;;;;;5009860;28;20080;-73
2021/08/01 10:20:16;;;;;;;6.55;4.40;;;17.50;92.10;;;;;;5010761;28;20088;-72
2021/08/01 10:22:43;;;;;;;6.80;4.88;;;17.60;92.10;;;;;;5001111;28;20366;-67
2021/08/01 10:25:28;;;;;;;5.32;4.07;;;17.70;92.10;;;;;;5015055;28;20036;-67
2021/08/01 10:27:57;;;;;;;5.35;4.32;;;17.80;92.20;;;;;;5009139;28;20022;-68
2021/08/01 10:30:27;;;;;;;6.90;4.43;;;17.90;92.10;;;;;;5010890;28;20030;-69
2021/08/01 10:33:02;;;;;;;5.30;4.32;;;17.90;92.00;;;;;;5011029;28;20176;-69
2021/08/01 10:35:28;;;;;;;8.48;4.50;;;18.00;91.70;;;;;;5013297;28;20481;-69
2021/08/01 10:38:02;;;;;;;6.38;4.78;;;18.00;91.60;;;;;;5031287;28;20030;-69
2021/08/01 10:40:33;;;;;;;4.80;3.95;;;18.00;91.60;;;;;;5013315;28;20107;-68
2021/08/01 10:43:01;;;;;;;5.07;4.57;;;18.00;91.50;;;;;;5013654;28;20024;-69
2021/08/01 10:45:27;;;;;;;8.80;4.43;;;18.10;91.60;;;;;;5009365;28;20022;-69
2021/08/01 10:47:54;;;;;;;4.80;3.90;;;18.10;91.60;;;;;;5010735;28;20025;-69
2021/08/01 10:50:25;;;;;;;6.50;4.25;;;18.10;91.30;;;;;;5010852;28;20037;-69
2021/08/01 10:53:19;;;;;;;4.30;3.83;;;18.10;91.30;;;;;;5011017;28;20045;-69
2021/08/01 10:55:45;;;;;;;5.20;3.95;;;18.20;91.10;;;;;;5010820;28;20371;-69
2021/08/01 10:58:13;;;;;;;7.10;3.58;;;18.10;91.00;;;;;;5005263;28;20117;-69
2021/08/01 11:01:07;;;;;;;7.82;4.20;;;18.10;91.00;;;;;;5006163;28;20088;-68
2021/08/01 11:03:35;;;;;;;7.07;4.13;;;18.00;90.90;;;;;;5009607;28;20030;-68
2021/08/01 11:06:02;;;;;;;6.03;3.33;;;18.00;90.90;;;;;;5008634;28;20028;-68
2021/08/01 11:08:28;;;;;;;5.78;3.90;;;18.00;90.90;;;;;;5007386;28;20027;-67
2021/08/01 11:11:13;;;;;;;7.43;4.60;;;18.00;90.90;;;;;;5009703;28;20437;-67
2021/08/01 11:13:47;;;;;;;7.22;3.90;;;17.90;91.10;;;;;;5010351;28;20022;-67
2021/08/01 11:16:34;;;;;;;4.07;3.78;;;17.90;91.00;;;;;;5000811;28;20037;-67
2021/08/01 11:19:00;;;;;;;7.82;4.18;;;17.80;91.00;;;;;;5010271;28;20041;-67
2021/08/01 11:21:38;;;;;;;6.95;3.72;;;17.80;91.10;;;;;;5010019;28;20410;-67
2021/08/01 11:24:06;;;;;;;4.38;3.60;;;17.80;91.20;;;;;;5006530;28;20158;-67
2021/08/01 11:26:32;;;;;;;5.35;3.88;;;17.80;91.10;;;;;;5001720;28;20025;-67
2021/08/01 11:29:11;;;;;;;3.33;3.00;;;17.90;91.20;;;;;;5010629;28;20379;-67
2021/08/01 11:32:07;;;;;;;5.05;3.38;;;18.10;91.30;;;;;;5009741;28;20126;-67
2021/08/01 11:34:33;;;;;;;4.57;3.08;;;18.30;91.10;;;;;;5003150;28;20038;-67
2021/08/01 11:37:18;;;;;;;3.80;3.40;;;18.50;91.00;;;;;;5011539;28;20030;-67
2021/08/01 11:39:55;;;;;;;5.55;3.10;;;18.60;90.70;;;;;;4996126;28;20030;-68
2021/08/01 11:42:26;;;;;;;3.45;2.80;;;18.70;90.40;;;;;;5013186;28;20494;-67
2021/08/01 11:45:03;;;;;;;4.45;2.70;;;18.70;90.30;;;;;;5003107;28;20545;-68
2021/08/01 11:47:39;;;;;;;3.25;2.67;;;18.70;90.20;;;;;;4986298;28;20387;-68
2021/08/01 11:50:06;;;;;;;4.95;2.80;;;18.80;90.40;;;;;;5006951;28;20045;-71
2021/08/01 11:52:46;;;;;;;4.88;2.72;;;18.90;90.30;;;;;;5013838;28;20041;-69
2021/08/01 11:55:20;;;;;;;4.95;3.10;;;19.00;90.00;;;;;;5008010;28;20037;-71
2021/08/01 11:57:50;;;;;;;3.00;2.47;;;19.00;90.00;;;;;;4996057;28;20033;-70
2021/08/01 12:00:16;;;;;;;3.63;3.13;;;19.00;89.60;;;;;;5012708;28;20056;-71
2021/08/01 12:02:50;;;;;;;4.38;2.80;;;19.00;89.00;;;;;;5013158;28;20036;-71
2021/08/01 12:05:16;;;;;;;3.40;2.92;;;19.00;89.00;;;;;;5003201;28;20098;-69
2021/08/01 12:07:43;;;;;;;4.15;3.22;;;19.00;89.10;;;;;;4993446;28;20041;-72
2021/08/01 12:10:27;;;;;;;3.78;2.97;;;19.00;88.70;;;;;;5003605;28;20033;-70
2021/08/01 12:12:56;;;;;;;6.47;3.35;;;19.10;88.40;;;;;;5011092;28;20046;-71
2021/08/01 12:15:26;;;;;;;3.38;3.10;;;19.10;88.50;;;;;;5008896;28;20065;-71
2021/08/01 12:17:51;;;;;;;4.80;3.17;;;19.10;88.20;;;;;;5013169;28;20018;-71
2021/08/01 12:20:18;;;;;;;6.38;3.20;;;19.10;88.00;;;;;;5011931;28;20515;-71
2021/08/01 12:22:48;;;;;;;4.90;2.90;;;19.10;87.80;;;;;;5013126;28;20478;-71
2021/08/01 12:25:14;;;;;;;3.58;2.70;;;19.10;87.90;;;;;;5012577;28;20033;-71
2021/08/01 12:27:39;;;;;;;4.75;2.90;;;19.10;87.90;;;;;;5013039;28;20026;-71
2021/08/01 12:30:05;;;;;;;4.50;2.88;;;19.10;88.10;;;;;;5013332;28;20538;-72
2021/08/01 12:32:38;;;;;;;3.80;2.88;;;19.20;87.60;;;;;;4994855;28;20052;-69
2021/08/01 12:35:08;;;;;;;4.32;2.80;;;19.30;87.70;;;;;;5014774;28;20056;-72
2021/08/01 12:37:48;;;;;;;6.15;3.10;;;19.30;87.10;;;;;;5011681;28;20025;-71
2021/08/01 12:40:29;;;;;;;3.92;2.55;;;19.40;86.80;;;;;;5003910;28;20040;-71
2021/08/01 12:42:57;;;;;;;3.33;2.40;;;19.50;86.90;;;;;;5012539;28;20026;-72
2021/08/01 12:45:32;;;;;;;3.20;2.25;;;19.60;86.80;;;;;;4996293;28;20018;-69
2021/08/01 12:47:58;;;;;;;3.15;2.58;;;19.70;86.70;;;;;;4992602;28;20483;-71
2021/08/01 12:50:24;;;;;;;4.15;2.17;;;19.90;86.40;;;;;;5006916;28;20034;-71
2021/08/01 12:52:51;;;;;;;6.15;2.15;;;20.00;85.80;;;;;;5012548;28;20037;-71
2021/08/01 12:55:16;;;;;;;3.60;2.40;;;20.10;86.10;;;;;;5011780;28;20034;-71